sensor_id;sensor_type;location;lat;lon;timestamp;P1;durP1;ratioP1;P2;durP2;ratioP2
51358;SDS011;37448;51.588;7.248;2023-05-10T00:00:01;5.45;;;3.92;;
51358;SDS011;37448;51.588;7.248;2023-05-10T00:02:13;6.07;;;3.60;;
51358;SDS011;37448;51.588;7.248;2023-05-10T00:04:13;8.48;;;4.05;;
51358;SDS011;37448;51.588;7.248;2023-05-10T00:06:14;7.00;;;4.05;;
51358;SDS011;37448;51.588;7.248;2023-05-10T00:08:14;6.00;;;4.07;;
51358;SDS011;37448;51.588;7.248;2023-05-10T00:10:14;6.78;;;3.90;;
51358;SDS011;37448;51.588;7.248;2023-05-10T00:12:15;5.50;;;3.75;;
51358;SDS011;37448;51.588;7.248;2023-05-10T00:14:15;5.38;;;3.72;;
51358;SDS011;37448;51.588;7.248;2023-05-10T00:16:16;5.43;;;2.90;;
51358;SDS011;37448;51.588;7.248;2023-05-10T00:18:17;3.75;;;3.10;;
51358;SDS011;37448;51.588;7.248;2023-05-10T00:20:17;5.28;;;3.42;;
51358;SDS011;37448;51.588;7.248;2023-05-10T00:22:17;5.90;;;3.15;;
51358;SDS011;37448;51.588;7.248;2023-05-10T00:24:18;5.63;;;2.80;;
51358;SDS011;37448;51.588;7.248;2023-05-10T00:26:18;7.78;;;3.45;;
51358;SDS011;37448;51.588;7.248;2023-05-10T00:28:25;6.30;;;3.55;;
51358;SDS011;37448;51.588;7.248;2023-05-10T00:30:27;5.07;;;3.45;;
51358;SDS011;37448;51.588;7.248;2023-05-10T00:32:28;6.50;;;4.28;;
51358;SDS011;37448;51.588;7.248;2023-05-10T00:34:29;5.53;;;3.78;;
51358;SDS011;37448;51.588;7.248;2023-05-10T00:36:30;6.00;;;3.70;;
51358;SDS011;37448;51.588;7.248;2023-05-10T00:38:31;5.05;;;3.35;;
51358;SDS011;37448;51.588;7.248;2023-05-10T00:40:31;5.95;;;3.92;;
51358;SDS011;37448;51.588;7.248;2023-05-10T00:42:37;5.65;;;3.35;;
51358;SDS011;37448;51.588;7.248;2023-05-10T00:44:37;6.18;;;3.70;;
51358;SDS011;37448;51.588;7.248;2023-05-10T00:46:39;6.35;;;3.60;;
51358;SDS011;37448;51.588;7.248;2023-05-10T00:48:41;6.00;;;3.33;;
51358;SDS011;37448;51.588;7.248;2023-05-10T00:50:43;5.25;;;2.72;;
51358;SDS011;37448;51.588;7.248;2023-05-10T00:52:44;5.25;;;3.20;;
51358;SDS011;37448;51.588;7.248;2023-05-10T00:54:45;6.25;;;3.80;;
51358;SDS011;37448;51.588;7.248;2023-05-10T00:56:47;4.70;;;2.75;;
51358;SDS011;37448;51.588;7.248;2023-05-10T00:58:49;5.28;;;3.60;;
51358;SDS011;37448;51.588;7.248;2023-05-10T01:00:50;4.68;;;2.97;;
51358;SDS011;37448;51.588;7.248;2023-05-10T01:02:52;5.82;;;3.20;;
51358;SDS011;37448;51.588;7.248;2023-05-10T01:04:53;6.13;;;3.72;;
51358;SDS011;37448;51.588;7.248;2023-05-10T01:06:54;6.30;;;3.80;;
51358;SDS011;37448;51.588;7.248;2023-05-10T01:08:55;6.40;;;2.72;;
51358;SDS011;37448;51.588;7.248;2023-05-10T01:10:56;7.32;;;3.72;;
51358;SDS011;37448;51.588;7.248;2023-05-10T01:12:57;6.78;;;3.40;;
51358;SDS011;37448;51.588;7.248;2023-05-10T01:14:59;5.75;;;3.47;;
51358;SDS011;37448;51.588;7.248;2023-05-10T01:17:01;5.35;;;3.35;;
51358;SDS011;37448;51.588;7.248;2023-05-10T01:19:02;5.70;;;2.88;;
51358;SDS011;37448;51.588;7.248;2023-05-10T01:31:22;4.90;;;2.70;;
51358;SDS011;37448;51.588;7.248;2023-05-10T01:33:46;3.67;;;2.30;;
51358;SDS011;37448;51.588;7.248;2023-05-10T01:36:03;6.90;;;3.53;;
51358;SDS011;37448;51.588;7.248;2023-05-10T01:38:17;6.32;;;3.38;;
51358;SDS011;37448;51.588;7.248;2023-05-10T01:41:19;5.85;;;2.90;;
51358;SDS011;37448;51.588;7.248;2023-05-10T01:43:02;5.18;;;3.10;;
51358;SDS011;37448;51.588;7.248;2023-05-10T01:45:10;4.15;;;2.30;;
51358;SDS011;37448;51.588;7.248;2023-05-10T01:47:20;5.82;;;2.90;;
51358;SDS011;37448;51.588;7.248;2023-05-10T01:49:32;8.15;;;2.80;;
51358;SDS011;37448;51.588;7.248;2023-05-10T01:51:47;4.82;;;2.53;;
51358;SDS011;37448;51.588;7.248;2023-05-10T01:53:51;6.40;;;3.15;;
51358;SDS011;37448;51.588;7.248;2023-05-10T01:55:56;5.40;;;2.78;;
51358;SDS011;37448;51.588;7.248;2023-05-10T01:58:03;6.05;;;3.28;;
51358;SDS011;37448;51.588;7.248;2023-05-10T02:00:08;3.92;;;2.17;;
51358;SDS011;37448;51.588;7.248;2023-05-10T02:02:17;6.43;;;2.33;;
51358;SDS011;37448;51.588;7.248;2023-05-10T02:04:20;2.53;;;1.35;;
51358;SDS011;37448;51.588;7.248;2023-05-10T02:06:24;3.15;;;1.48;;
51358;SDS011;37448;51.588;7.248;2023-05-10T02:08:26;2.05;;;1.27;;
51358;SDS011;37448;51.588;7.248;2023-05-10T02:10:27;3.63;;;1.75;;
51358;SDS011;37448;51.588;7.248;2023-05-10T02:12:29;2.10;;;1.02;;
51358;SDS011;37448;51.588;7.248;2023-05-10T02:14:32;2.50;;;1.35;;
51358;SDS011;37448;51.588;7.248;2023-05-10T02:16:36;2.95;;;1.40;;
51358;SDS011;37448;51.588;7.248;2023-05-10T02:18:38;3.42;;;1.30;;
51358;SDS011;37448;51.588;7.248;2023-05-10T02:20:41;2.03;;;1.27;;
51358;SDS011;37448;51.588;7.248;2023-05-10T02:22:42;3.30;;;1.40;;
51358;SDS011;37448;51.588;7.248;2023-05-10T02:24:44;3.40;;;1.38;;
51358;SDS011;37448;51.588;7.248;2023-05-10T02:26:47;2.47;;;1.27;;
51358;SDS011;37448;51.588;7.248;2023-05-10T02:28:49;3.10;;;1.65;;
51358;SDS011;37448;51.588;7.248;2023-05-10T02:30:51;3.15;;;1.80;;
51358;SDS011;37448;51.588;7.248;2023-05-10T02:32:52;2.50;;;1.40;;
51358;SDS011;37448;51.588;7.248;2023-05-10T02:34:53;2.67;;;1.33;;
51358;SDS011;37448;51.588;7.248;2023-05-10T02:36:55;3.47;;;1.40;;
51358;SDS011;37448;51.588;7.248;2023-05-10T02:38:56;3.65;;;1.85;;
51358;SDS011;37448;51.588;7.248;2023-05-10T02:40:59;5.70;;;1.77;;
51358;SDS011;37448;51.588;7.248;2023-05-10T02:43:02;2.92;;;1.52;;
51358;SDS011;37448;51.588;7.248;2023-05-10T02:45:10;2.92;;;1.48;;
51358;SDS011;37448;51.588;7.248;2023-05-10T02:47:12;2.28;;;1.42;;
51358;SDS011;37448;51.588;7.248;2023-05-10T02:49:12;2.70;;;1.55;;
51358;SDS011;37448;51.588;7.248;2023-05-10T02:51:13;3.10;;;1.40;;
51358;SDS011;37448;51.588;7.248;2023-05-10T02:53:31;3.88;;;1.52;;
51358;SDS011;37448;51.588;7.248;2023-05-10T02:55:38;3.22;;;1.42;;
51358;SDS011;37448;51.588;7.248;2023-05-10T02:57:46;2.42;;;1.30;;
51358;SDS011;37448;51.588;7.248;2023-05-10T02:59:51;2.47;;;1.85;;
51358;SDS011;37448;51.588;7.248;2023-05-10T03:01:51;3.53;;;1.80;;
51358;SDS011;37448;51.588;7.248;2023-05-10T03:03:52;3.75;;;2.03;;
51358;SDS011;37448;51.588;7.248;2023-05-10T03:05:52;2.45;;;1.48;;
51358;SDS011;37448;51.588;7.248;2023-05-10T03:07:55;3.08;;;1.85;;
51358;SDS011;37448;51.588;7.248;2023-05-10T03:09:57;2.83;;;1.75;;
51358;SDS011;37448;51.588;7.248;2023-05-10T03:12:08;3.92;;;1.80;;
51358;SDS011;37448;51.588;7.248;2023-05-10T03:14:25;4.03;;;2.22;;
51358;SDS011;37448;51.588;7.248;2023-05-10T03:16:29;4.88;;;2.53;;
51358;SDS011;37448;51.588;7.248;2023-05-10T03:20:47;4.70;;;2.15;;
51358;SDS011;37448;51.588;7.248;2023-05-10T03:22:51;7.00;;;3.92;;
51358;SDS011;37448;51.588;7.248;2023-05-10T03:24:55;8.23;;;3.53;;
51358;SDS011;37448;51.588;7.248;2023-05-10T03:29:02;8.13;;;3.90;;
51358;SDS011;37448;51.588;7.248;2023-05-10T03:31:05;8.73;;;3.70;;
51358;SDS011;37448;51.588;7.248;2023-05-10T03:33:07;7.05;;;3.90;;
51358;SDS011;37448;51.588;7.248;2023-05-10T03:35:12;7.85;;;4.50;;
51358;SDS011;37448;51.588;7.248;2023-05-10T03:37:13;9.43;;;4.88;;
51358;SDS011;37448;51.588;7.248;2023-05-10T03:39:14;8.07;;;4.85;;
51358;SDS011;37448;51.588;7.248;2023-05-10T03:41:14;8.90;;;4.82;;
51358;SDS011;37448;51.588;7.248;2023-05-10T03:43:15;11.00;;;5.28;;
51358;SDS011;37448;51.588;7.248;2023-05-10T03:45:16;10.40;;;5.60;;
51358;SDS011;37448;51.588;7.248;2023-05-10T03:47:17;13.77;;;6.07;;
51358;SDS011;37448;51.588;7.248;2023-05-10T03:49:17;16.30;;;5.78;;
51358;SDS011;37448;51.588;7.248;2023-05-10T03:51:18;13.80;;;6.70;;
51358;SDS011;37448;51.588;7.248;2023-05-10T03:53:18;14.20;;;7.50;;
51358;SDS011;37448;51.588;7.248;2023-05-10T03:55:18;13.40;;;7.55;;
51358;SDS011;37448;51.588;7.248;2023-05-10T03:57:19;14.60;;;6.50;;
51358;SDS011;37448;51.588;7.248;2023-05-10T03:59:20;14.07;;;7.03;;
51358;SDS011;37448;51.588;7.248;2023-05-10T04:01:20;13.05;;;6.20;;
51358;SDS011;37448;51.588;7.248;2023-05-10T04:03:20;14.85;;;6.40;;
51358;SDS011;37448;51.588;7.248;2023-05-10T04:05:21;11.77;;;6.43;;
51358;SDS011;37448;51.588;7.248;2023-05-10T04:07:21;12.90;;;6.38;;
51358;SDS011;37448;51.588;7.248;2023-05-10T04:09:22;11.80;;;6.90;;
51358;SDS011;37448;51.588;7.248;2023-05-10T04:11:22;12.90;;;6.47;;
51358;SDS011;37448;51.588;7.248;2023-05-10T04:13:24;13.27;;;6.30;;
51358;SDS011;37448;51.588;7.248;2023-05-10T04:15:25;15.63;;;6.78;;
51358;SDS011;37448;51.588;7.248;2023-05-10T04:17:25;13.95;;;7.70;;
51358;SDS011;37448;51.588;7.248;2023-05-10T04:19:28;15.23;;;8.38;;
51358;SDS011;37448;51.588;7.248;2023-05-10T04:21:32;14.13;;;8.05;;
51358;SDS011;37448;51.588;7.248;2023-05-10T04:23:33;14.95;;;8.90;;
51358;SDS011;37448;51.588;7.248;2023-05-10T04:25:34;18.38;;;9.15;;
51358;SDS011;37448;51.588;7.248;2023-05-10T04:27:35;21.05;;;9.45;;
51358;SDS011;37448;51.588;7.248;2023-05-10T04:29:35;23.40;;;10.23;;
51358;SDS011;37448;51.588;7.248;2023-05-10T04:31:36;20.08;;;10.02;;
51358;SDS011;37448;51.588;7.248;2023-05-10T04:33:36;24.30;;;11.52;;
51358;SDS011;37448;51.588;7.248;2023-05-10T04:35:37;22.08;;;10.65;;
51358;SDS011;37448;51.588;7.248;2023-05-10T04:37:37;20.08;;;10.70;;
51358;SDS011;37448;51.588;7.248;2023-05-10T04:39:38;23.23;;;10.55;;
51358;SDS011;37448;51.588;7.248;2023-05-10T04:41:38;23.95;;;10.32;;
51358;SDS011;37448;51.588;7.248;2023-05-10T04:43:38;26.23;;;12.57;;
51358;SDS011;37448;51.588;7.248;2023-05-10T04:45:39;29.23;;;12.93;;
51358;SDS011;37448;51.588;7.248;2023-05-10T04:47:39;29.55;;;13.88;;
51358;SDS011;37448;51.588;7.248;2023-05-10T04:49:40;29.83;;;14.35;;
51358;SDS011;37448;51.588;7.248;2023-05-10T04:51:40;31.42;;;14.02;;
51358;SDS011;37448;51.588;7.248;2023-05-10T04:53:40;37.05;;;15.68;;
51358;SDS011;37448;51.588;7.248;2023-05-10T04:55:41;33.25;;;15.55;;
51358;SDS011;37448;51.588;7.248;2023-05-10T04:57:42;32.83;;;14.90;;
51358;SDS011;37448;51.588;7.248;2023-05-10T05:03:04;33.17;;;14.45;;
51358;SDS011;37448;51.588;7.248;2023-05-10T05:05:05;33.17;;;16.65;;
51358;SDS011;37448;51.588;7.248;2023-05-10T05:07:06;32.47;;;16.80;;
51358;SDS011;37448;51.588;7.248;2023-05-10T05:09:06;34.42;;;14.35;;
51358;SDS011;37448;51.588;7.248;2023-05-10T05:11:06;36.92;;;15.30;;
51358;SDS011;37448;51.588;7.248;2023-05-10T05:13:07;32.75;;;14.95;;
51358;SDS011;37448;51.588;7.248;2023-05-10T05:15:07;35.55;;;16.85;;
51358;SDS011;37448;51.588;7.248;2023-05-10T05:17:09;37.70;;;15.80;;
51358;SDS011;37448;51.588;7.248;2023-05-10T05:19:09;37.33;;;15.43;;
51358;SDS011;37448;51.588;7.248;2023-05-10T05:21:16;33.22;;;14.93;;
51358;SDS011;37448;51.588;7.248;2023-05-10T05:23:18;35.88;;;15.13;;
51358;SDS011;37448;51.588;7.248;2023-05-10T05:25:20;33.38;;;15.38;;
51358;SDS011;37448;51.588;7.248;2023-05-10T05:27:21;37.28;;;15.18;;
51358;SDS011;37448;51.588;7.248;2023-05-10T05:29:24;34.70;;;15.30;;
51358;SDS011;37448;51.588;7.248;2023-05-10T05:31:24;36.08;;;15.35;;
51358;SDS011;37448;51.588;7.248;2023-05-10T05:33:25;36.38;;;15.20;;
51358;SDS011;37448;51.588;7.248;2023-05-10T05:35:25;37.30;;;17.23;;
51358;SDS011;37448;51.588;7.248;2023-05-10T05:37:26;35.20;;;16.35;;
51358;SDS011;37448;51.588;7.248;2023-05-10T05:39:26;36.72;;;16.50;;
51358;SDS011;37448;51.588;7.248;2023-05-10T05:41:26;34.88;;;16.95;;
51358;SDS011;37448;51.588;7.248;2023-05-10T05:43:27;35.10;;;15.63;;
51358;SDS011;37448;51.588;7.248;2023-05-10T05:45:27;36.00;;;16.45;;
51358;SDS011;37448;51.588;7.248;2023-05-10T05:47:27;34.63;;;16.00;;
51358;SDS011;37448;51.588;7.248;2023-05-10T05:49:28;38.28;;;17.10;;
51358;SDS011;37448;51.588;7.248;2023-05-10T05:51:28;33.95;;;14.77;;
51358;SDS011;37448;51.588;7.248;2023-05-10T05:53:29;35.30;;;16.17;;
51358;SDS011;37448;51.588;7.248;2023-05-10T05:55:29;39.00;;;18.20;;
51358;SDS011;37448;51.588;7.248;2023-05-10T05:57:31;40.03;;;17.85;;
51358;SDS011;37448;51.588;7.248;2023-05-10T05:59:31;37.55;;;16.60;;
51358;SDS011;37448;51.588;7.248;2023-05-10T06:01:32;30.80;;;15.35;;
51358;SDS011;37448;51.588;7.248;2023-05-10T06:03:32;39.35;;;17.13;;
51358;SDS011;37448;51.588;7.248;2023-05-10T06:05:33;43.38;;;17.88;;
51358;SDS011;37448;51.588;7.248;2023-05-10T06:07:33;39.17;;;17.25;;
51358;SDS011;37448;51.588;7.248;2023-05-10T06:09:33;35.95;;;15.95;;
51358;SDS011;37448;51.588;7.248;2023-05-10T06:11:34;42.38;;;18.27;;
51358;SDS011;37448;51.588;7.248;2023-05-10T06:13:35;35.70;;;16.35;;
51358;SDS011;37448;51.588;7.248;2023-05-10T06:15:35;36.70;;;15.95;;
51358;SDS011;37448;51.588;7.248;2023-05-10T06:17:36;36.05;;;17.48;;
51358;SDS011;37448;51.588;7.248;2023-05-10T06:19:36;35.85;;;15.25;;
51358;SDS011;37448;51.588;7.248;2023-05-10T06:21:37;39.35;;;15.88;;
51358;SDS011;37448;51.588;7.248;2023-05-10T06:23:37;43.08;;;17.33;;
51358;SDS011;37448;51.588;7.248;2023-05-10T06:25:38;37.45;;;16.88;;
51358;SDS011;37448;51.588;7.248;2023-05-10T06:27:38;36.42;;;15.27;;
51358;SDS011;37448;51.588;7.248;2023-05-10T06:29:38;33.40;;;16.38;;
51358;SDS011;37448;51.588;7.248;2023-05-10T06:31:39;29.15;;;14.27;;
51358;SDS011;37448;51.588;7.248;2023-05-10T06:33:39;40.85;;;16.48;;
51358;SDS011;37448;51.588;7.248;2023-05-10T06:35:40;40.03;;;16.85;;
51358;SDS011;37448;51.588;7.248;2023-05-10T06:37:40;32.05;;;14.48;;
51358;SDS011;37448;51.588;7.248;2023-05-10T06:39:41;32.85;;;15.57;;
51358;SDS011;37448;51.588;7.248;2023-05-10T06:41:41;35.70;;;15.77;;
51358;SDS011;37448;51.588;7.248;2023-05-10T06:43:41;32.92;;;16.70;;
51358;SDS011;37448;51.588;7.248;2023-05-10T06:45:43;36.60;;;16.35;;
51358;SDS011;37448;51.588;7.248;2023-05-10T06:47:43;36.05;;;16.02;;
51358;SDS011;37448;51.588;7.248;2023-05-10T06:49:44;39.70;;;16.98;;
51358;SDS011;37448;51.588;7.248;2023-05-10T06:51:44;34.15;;;15.27;;
51358;SDS011;37448;51.588;7.248;2023-05-10T06:53:45;37.03;;;16.75;;
51358;SDS011;37448;51.588;7.248;2023-05-10T06:55:45;37.83;;;16.15;;
51358;SDS011;37448;51.588;7.248;2023-05-10T06:57:45;37.45;;;16.25;;
51358;SDS011;37448;51.588;7.248;2023-05-10T06:59:46;29.85;;;15.15;;
51358;SDS011;37448;51.588;7.248;2023-05-10T07:01:46;33.00;;;16.10;;
51358;SDS011;37448;51.588;7.248;2023-05-10T07:03:47;31.67;;;14.30;;
51358;SDS011;37448;51.588;7.248;2023-05-10T07:05:47;33.50;;;15.50;;
51358;SDS011;37448;51.588;7.248;2023-05-10T07:07:47;33.03;;;15.73;;
51358;SDS011;37448;51.588;7.248;2023-05-10T07:09:48;36.67;;;16.00;;
51358;SDS011;37448;51.588;7.248;2023-05-10T07:11:49;31.52;;;15.02;;
51358;SDS011;37448;51.588;7.248;2023-05-10T07:13:50;33.50;;;14.88;;
51358;SDS011;37448;51.588;7.248;2023-05-10T07:15:50;29.15;;;13.73;;
51358;SDS011;37448;51.588;7.248;2023-05-10T07:17:50;28.77;;;12.82;;
51358;SDS011;37448;51.588;7.248;2023-05-10T07:19:52;27.88;;;14.18;;
51358;SDS011;37448;51.588;7.248;2023-05-10T07:21:52;28.02;;;14.07;;
51358;SDS011;37448;51.588;7.248;2023-05-10T07:23:53;28.10;;;14.60;;
51358;SDS011;37448;51.588;7.248;2023-05-10T07:25:53;27.13;;;14.13;;
51358;SDS011;37448;51.588;7.248;2023-05-10T07:27:53;26.48;;;13.48;;
51358;SDS011;37448;51.588;7.248;2023-05-10T07:29:54;29.65;;;14.30;;
51358;SDS011;37448;51.588;7.248;2023-05-10T07:31:55;30.40;;;14.85;;
51358;SDS011;37448;51.588;7.248;2023-05-10T07:33:55;27.70;;;14.07;;
51358;SDS011;37448;51.588;7.248;2023-05-10T07:35:55;30.33;;;16.13;;
51358;SDS011;37448;51.588;7.248;2023-05-10T07:37:56;31.88;;;15.88;;
51358;SDS011;37448;51.588;7.248;2023-05-10T07:39:56;31.88;;;16.80;;
51358;SDS011;37448;51.588;7.248;2023-05-10T07:41:56;33.17;;;18.30;;
51358;SDS011;37448;51.588;7.248;2023-05-10T07:43:57;32.83;;;17.02;;
51358;SDS011;37448;51.588;7.248;2023-05-10T07:45:57;31.25;;;17.17;;
51358;SDS011;37448;51.588;7.248;2023-05-10T07:47:59;34.65;;;18.13;;
51358;SDS011;37448;51.588;7.248;2023-05-10T07:50:00;31.60;;;16.23;;
51358;SDS011;37448;51.588;7.248;2023-05-10T07:52:01;35.97;;;17.48;;
51358;SDS011;37448;51.588;7.248;2023-05-10T07:54:03;35.95;;;19.40;;
51358;SDS011;37448;51.588;7.248;2023-05-10T07:56:22;32.63;;;17.48;;
51358;SDS011;37448;51.588;7.248;2023-05-10T07:58:31;28.23;;;15.80;;
51358;SDS011;37448;51.588;7.248;2023-05-10T08:00:32;29.65;;;15.57;;
51358;SDS011;37448;51.588;7.248;2023-05-10T08:02:34;31.92;;;15.90;;
51358;SDS011;37448;51.588;7.248;2023-05-10T08:04:35;32.53;;;16.92;;
51358;SDS011;37448;51.588;7.248;2023-05-10T08:06:35;33.65;;;17.45;;
51358;SDS011;37448;51.588;7.248;2023-05-10T08:08:35;33.33;;;17.83;;
51358;SDS011;37448;51.588;7.248;2023-05-10T08:10:36;39.42;;;19.90;;
51358;SDS011;37448;51.588;7.248;2023-05-10T08:12:36;40.28;;;19.75;;
51358;SDS011;37448;51.588;7.248;2023-05-10T08:14:38;34.35;;;17.88;;
51358;SDS011;37448;51.588;7.248;2023-05-10T08:16:38;32.22;;;17.30;;
51358;SDS011;37448;51.588;7.248;2023-05-10T08:18:39;35.28;;;17.83;;
51358;SDS011;37448;51.588;7.248;2023-05-10T08:20:39;31.75;;;17.23;;
51358;SDS011;37448;51.588;7.248;2023-05-10T08:22:40;30.25;;;14.82;;
51358;SDS011;37448;51.588;7.248;2023-05-10T08:24:40;23.92;;;13.38;;
51358;SDS011;37448;51.588;7.248;2023-05-10T08:26:41;30.55;;;15.52;;
51358;SDS011;37448;51.588;7.248;2023-05-10T08:28:42;29.70;;;14.73;;
51358;SDS011;37448;51.588;7.248;2023-05-10T08:30:42;24.25;;;12.95;;
51358;SDS011;37448;51.588;7.248;2023-05-10T08:32:43;22.10;;;12.20;;
51358;SDS011;37448;51.588;7.248;2023-05-10T08:34:43;25.67;;;11.88;;
51358;SDS011;37448;51.588;7.248;2023-05-10T08:36:43;23.05;;;12.20;;
51358;SDS011;37448;51.588;7.248;2023-05-10T08:38:44;23.00;;;12.15;;
51358;SDS011;37448;51.588;7.248;2023-05-10T08:40:44;21.33;;;12.20;;
51358;SDS011;37448;51.588;7.248;2023-05-10T08:42:51;26.10;;;12.88;;
51358;SDS011;37448;51.588;7.248;2023-05-10T08:44:58;27.17;;;13.95;;
51358;SDS011;37448;51.588;7.248;2023-05-10T08:46:59;27.60;;;14.68;;
51358;SDS011;37448;51.588;7.248;2023-05-10T08:49:06;33.42;;;17.98;;
51358;SDS011;37448;51.588;7.248;2023-05-10T08:51:11;37.78;;;17.25;;
51358;SDS011;37448;51.588;7.248;2023-05-10T08:53:14;34.97;;;17.58;;
51358;SDS011;37448;51.588;7.248;2023-05-10T08:55:16;34.55;;;18.13;;
51358;SDS011;37448;51.588;7.248;2023-05-10T08:57:16;35.25;;;17.70;;
51358;SDS011;37448;51.588;7.248;2023-05-10T08:59:17;37.88;;;17.73;;
51358;SDS011;37448;51.588;7.248;2023-05-10T09:01:18;36.75;;;19.35;;
51358;SDS011;37448;51.588;7.248;2023-05-10T09:03:20;39.33;;;19.45;;
51358;SDS011;37448;51.588;7.248;2023-05-10T09:05:20;41.05;;;19.55;;
51358;SDS011;37448;51.588;7.248;2023-05-10T09:07:21;37.83;;;18.60;;
51358;SDS011;37448;51.588;7.248;2023-05-10T09:09:21;36.63;;;18.80;;
51358;SDS011;37448;51.588;7.248;2023-05-10T09:11:22;39.85;;;17.45;;
51358;SDS011;37448;51.588;7.248;2023-05-10T09:13:24;34.67;;;17.52;;
51358;SDS011;37448;51.588;7.248;2023-05-10T09:15:24;33.35;;;16.48;;
51358;SDS011;37448;51.588;7.248;2023-05-10T09:17:25;31.95;;;15.75;;
51358;SDS011;37448;51.588;7.248;2023-05-10T09:19:28;31.17;;;15.93;;
51358;SDS011;37448;51.588;7.248;2023-05-10T09:21:28;24.58;;;14.00;;
51358;SDS011;37448;51.588;7.248;2023-05-10T09:23:31;26.55;;;13.23;;
51358;SDS011;37448;51.588;7.248;2023-05-10T09:25:32;26.92;;;12.20;;
51358;SDS011;37448;51.588;7.248;2023-05-10T09:29:39;25.95;;;11.88;;
51358;SDS011;37448;51.588;7.248;2023-05-10T09:31:48;25.60;;;12.15;;
51358;SDS011;37448;51.588;7.248;2023-05-10T09:33:51;22.42;;;11.23;;
51358;SDS011;37448;51.588;7.248;2023-05-10T09:35:52;23.98;;;11.93;;
51358;SDS011;37448;51.588;7.248;2023-05-10T09:37:53;21.67;;;11.38;;
51358;SDS011;37448;51.588;7.248;2023-05-10T09:39:55;19.92;;;10.63;;
51358;SDS011;37448;51.588;7.248;2023-05-10T09:41:55;20.80;;;10.38;;
51358;SDS011;37448;51.588;7.248;2023-05-10T09:43:56;20.33;;;10.07;;
51358;SDS011;37448;51.588;7.248;2023-05-10T09:45:56;19.20;;;10.30;;
51358;SDS011;37448;51.588;7.248;2023-05-10T09:47:57;20.75;;;10.40;;
51358;SDS011;37448;51.588;7.248;2023-05-10T09:49:59;17.50;;;9.23;;
51358;SDS011;37448;51.588;7.248;2023-05-10T09:52:04;18.77;;;9.43;;
51358;SDS011;37448;51.588;7.248;2023-05-10T09:54:13;17.80;;;9.48;;
51358;SDS011;37448;51.588;7.248;2023-05-10T09:56:17;17.27;;;10.05;;
51358;SDS011;37448;51.588;7.248;2023-05-10T09:58:36;15.35;;;8.27;;
51358;SDS011;37448;51.588;7.248;2023-05-10T10:00:44;14.77;;;8.38;;
51358;SDS011;37448;51.588;7.248;2023-05-10T10:02:48;16.52;;;8.90;;
51358;SDS011;37448;51.588;7.248;2023-05-10T10:04:55;14.77;;;8.55;;
51358;SDS011;37448;51.588;7.248;2023-05-10T10:07:02;13.23;;;8.57;;
51358;SDS011;37448;51.588;7.248;2023-05-10T10:09:03;13.30;;;7.93;;
51358;SDS011;37448;51.588;7.248;2023-05-10T10:11:04;19.10;;;9.57;;
51358;SDS011;37448;51.588;7.248;2023-05-10T10:13:04;16.08;;;9.93;;
51358;SDS011;37448;51.588;7.248;2023-05-10T10:15:05;19.88;;;10.40;;
51358;SDS011;37448;51.588;7.248;2023-05-10T10:17:07;14.43;;;9.43;;
51358;SDS011;37448;51.588;7.248;2023-05-10T10:19:09;17.38;;;9.00;;
51358;SDS011;37448;51.588;7.248;2023-05-10T10:21:10;15.30;;;9.77;;
51358;SDS011;37448;51.588;7.248;2023-05-10T10:23:13;20.42;;;10.75;;
51358;SDS011;37448;51.588;7.248;2023-05-10T10:25:14;18.33;;;10.45;;
51358;SDS011;37448;51.588;7.248;2023-05-10T10:27:23;19.20;;;9.23;;
51358;SDS011;37448;51.588;7.248;2023-05-10T10:29:45;22.90;;;10.35;;
51358;SDS011;37448;51.588;7.248;2023-05-10T10:34:07;23.63;;;11.73;;
51358;SDS011;37448;51.588;7.248;2023-05-10T10:36:09;23.38;;;12.07;;
51358;SDS011;37448;51.588;7.248;2023-05-10T10:38:12;25.90;;;12.15;;
51358;SDS011;37448;51.588;7.248;2023-05-10T10:42:44;31.20;;;13.18;;
51358;SDS011;37448;51.588;7.248;2023-05-10T10:44:49;28.88;;;13.30;;
51358;SDS011;37448;51.588;7.248;2023-05-10T10:52:12;22.30;;;12.43;;
51358;SDS011;37448;51.588;7.248;2023-05-10T10:54:18;26.48;;;12.50;;
51358;SDS011;37448;51.588;7.248;2023-05-10T10:56:27;29.63;;;13.52;;
51358;SDS011;37448;51.588;7.248;2023-05-10T10:58:28;25.77;;;12.07;;
51358;SDS011;37448;51.588;7.248;2023-05-10T11:00:32;25.92;;;12.07;;
51358;SDS011;37448;51.588;7.248;2023-05-10T11:04:42;24.27;;;12.32;;
51358;SDS011;37448;51.588;7.248;2023-05-10T11:06:46;22.90;;;10.60;;
51358;SDS011;37448;51.588;7.248;2023-05-10T11:08:46;23.85;;;10.93;;
51358;SDS011;37448;51.588;7.248;2023-05-10T11:13:04;20.88;;;11.27;;
51358;SDS011;37448;51.588;7.248;2023-05-10T11:15:07;20.88;;;12.10;;
51358;SDS011;37448;51.588;7.248;2023-05-10T11:17:27;21.80;;;11.32;;
51358;SDS011;37448;51.588;7.248;2023-05-10T11:19:29;21.35;;;11.10;;
51358;SDS011;37448;51.588;7.248;2023-05-10T11:21:30;20.65;;;10.32;;
51358;SDS011;37448;51.588;7.248;2023-05-10T11:23:31;21.23;;;11.38;;
51358;SDS011;37448;51.588;7.248;2023-05-10T11:25:33;23.95;;;13.05;;
51358;SDS011;37448;51.588;7.248;2023-05-10T11:27:36;24.33;;;12.38;;
51358;SDS011;37448;51.588;7.248;2023-05-10T11:29:37;28.30;;;14.60;;
51358;SDS011;37448;51.588;7.248;2023-05-10T11:31:42;26.05;;;14.50;;
51358;SDS011;37448;51.588;7.248;2023-05-10T11:33:47;27.25;;;15.02;;
51358;SDS011;37448;51.588;7.248;2023-05-10T11:35:49;29.10;;;14.63;;
51358;SDS011;37448;51.588;7.248;2023-05-10T11:37:50;28.20;;;14.60;;
51358;SDS011;37448;51.588;7.248;2023-05-10T11:39:50;33.85;;;16.27;;
51358;SDS011;37448;51.588;7.248;2023-05-10T11:41:51;30.60;;;14.45;;
51358;SDS011;37448;51.588;7.248;2023-05-10T11:43:55;31.90;;;15.10;;
51358;SDS011;37448;51.588;7.248;2023-05-10T11:45:56;22.25;;;12.98;;
51358;SDS011;37448;51.588;7.248;2023-05-10T11:47:57;28.33;;;13.07;;
51358;SDS011;37448;51.588;7.248;2023-05-10T11:49:57;25.60;;;12.15;;
51358;SDS011;37448;51.588;7.248;2023-05-10T11:52:05;19.50;;;10.70;;
51358;SDS011;37448;51.588;7.248;2023-05-10T11:54:07;18.70;;;10.50;;
51358;SDS011;37448;51.588;7.248;2023-05-10T11:56:09;18.42;;;9.02;;
51358;SDS011;37448;51.588;7.248;2023-05-10T11:58:10;18.42;;;9.60;;
51358;SDS011;37448;51.588;7.248;2023-05-10T12:00:10;17.35;;;7.88;;
51358;SDS011;37448;51.588;7.248;2023-05-10T12:02:14;14.40;;;7.85;;
51358;SDS011;37448;51.588;7.248;2023-05-10T12:04:15;16.85;;;8.23;;
51358;SDS011;37448;51.588;7.248;2023-05-10T12:06:16;14.63;;;7.50;;
51358;SDS011;37448;51.588;7.248;2023-05-10T12:08:20;15.10;;;7.15;;
51358;SDS011;37448;51.588;7.248;2023-05-10T12:10:27;14.27;;;6.85;;
51358;SDS011;37448;51.588;7.248;2023-05-10T12:12:34;16.52;;;8.70;;
51358;SDS011;37448;51.588;7.248;2023-05-10T12:14:38;13.95;;;7.75;;
51358;SDS011;37448;51.588;7.248;2023-05-10T12:16:39;16.27;;;8.23;;
51358;SDS011;37448;51.588;7.248;2023-05-10T12:18:40;14.20;;;7.90;;
51358;SDS011;37448;51.588;7.248;2023-05-10T12:20:42;10.40;;;5.53;;
51358;SDS011;37448;51.588;7.248;2023-05-10T12:23:00;14.77;;;6.55;;
51358;SDS011;37448;51.588;7.248;2023-05-10T12:25:03;13.20;;;6.90;;
51358;SDS011;37448;51.588;7.248;2023-05-10T12:27:09;14.15;;;6.43;;
51358;SDS011;37448;51.588;7.248;2023-05-10T12:29:12;12.85;;;6.65;;
51358;SDS011;37448;51.588;7.248;2023-05-10T12:31:17;9.05;;;6.00;;
51358;SDS011;37448;51.588;7.248;2023-05-10T12:33:17;15.15;;;8.27;;
51358;SDS011;37448;51.588;7.248;2023-05-10T12:35:18;13.30;;;7.57;;
51358;SDS011;37448;51.588;7.248;2023-05-10T12:37:24;12.50;;;6.90;;